46.3°F
Current conditions from King Hill
Updated every 5 minutes
 
  Monday November 24, 2014

Station Historical Data
Daily Summary for June 9, 2012 Units:  Both    English   Metric
« Previous Day
Next Day »
Daily Weekly Monthly Yearly Custom
  High: Low: Average:
Temperature: 75.1 °F /  23.9 °C 46.4 °F /  8 °C 60.5 °F /  15.8 °C
Dew Point: 58.0 °F /  14.4 °C 45.0 °F /  7.2 °C 51.6 °F /  10.9 °C
Humidity: 96% 44% 75%
Wind Speed: 5.0mph /  8km/h - 1.7mph /  2.7km/h
Wind Gust: 13.0mph /  20.9km/h - -
Wind- - WSW
Pressure: 29.94 in /  1013.8 hPa 29.77 in /  1008 hPa -
Precipitation: 0.01 in /  0.3 mm    
Historical Graphs
 
 
Tabular Data for June 9, 2012
Time Temperature Dew Point Pressure Wind Wind Speed Wind Gust Humidity Daily Rainfall
00:04 50.9 °F /  10.5 °C 48.9 °F /  9.4 °C 29.77in /  1008hPa Calm     93% 0.00in /  0mm
00:09 50.9 °F /  10.5 °C 48.9 °F /  9.4 °C 29.77in /  1008hPa Calm     93% 0.00in /  0mm
00:14 50.6 °F /  10.3 °C 48.7 °F /  9.3 °C 29.77in /  1008hPa Calm   1.0mph /  1.6km/h 93% 0.00in /  0mm
00:19 50.7 °F /  10.4 °C 48.8 °F /  9.3 °C 29.77in /  1008hPa Calm   4.0mph /  6.4km/h 93% 0.00in /  0mm
00:24 50.6 °F /  10.3 °C 48.7 °F /  9.3 °C 29.77in /  1008hPa Calm   4.0mph /  6.4km/h 93% 0.00in /  0mm
00:29 50.5 °F /  10.3 °C 48.6 °F /  9.2 °C 29.77in /  1008hPa Calm   1.0mph /  1.6km/h 93% 0.00in /  0mm
00:34 50.6 °F /  10.3 °C 48.7 °F /  9.3 °C 29.77in /  1008hPa Calm   3.0mph /  4.8km/h 93% 0.00in /  0mm
00:39 50.8 °F /  10.4 °C 49.1 °F /  9.5 °C 29.77in /  1008hPa Calm   3.0mph /  4.8km/h 94% 0.00in /  0mm
00:44 50.9 °F /  10.5 °C 49.2 °F /  9.6 °C 29.77in /  1008hPa Calm   1.0mph /  1.6km/h 94% 0.00in /  0mm
00:49 51.0 °F /  10.6 °C 49.3 °F /  9.6 °C 29.78in /  1008.4hPa Calm   1.0mph /  1.6km/h 94% 0.00in /  0mm
00:54 50.9 °F /  10.5 °C 49.2 °F /  9.6 °C 29.78in /  1008.4hPa Calm   3.0mph /  4.8km/h 94% 0.00in /  0mm
00:59 51.0 °F /  10.6 °C 49.3 °F /  9.6 °C 29.77in /  1008hPa SW 3.0mph /  4.8km/h 4.0mph /  6.4km/h 94% 0.00in /  0mm
01:04 51.0 °F /  10.6 °C 49.3 °F /  9.6 °C 29.77in /  1008hPa Calm   4.0mph /  6.4km/h 94% 0.00in /  0mm
01:09 50.9 °F /  10.5 °C 49.2 °F /  9.6 °C 29.77in /  1008hPa SW 3.0mph /  4.8km/h 6.0mph /  9.7km/h 94% 0.00in /  0mm
01:14 51.0 °F /  10.6 °C 49.6 °F /  9.8 °C 29.77in /  1008hPa SSW 2.0mph /  3.2km/h 6.0mph /  9.7km/h 95% 0.00in /  0mm
01:19 50.9 °F /  10.5 °C 49.5 °F /  9.7 °C 29.77in /  1008hPa Calm   4.0mph /  6.4km/h 95% 0.00in /  0mm
01:24 50.9 °F /  10.5 °C 49.5 °F /  9.7 °C 29.77in /  1008hPa Calm   4.0mph /  6.4km/h 95% 0.00in /  0mm
01:29 51.0 °F /  10.6 °C 49.6 °F /  9.8 °C 29.77in /  1008hPa Calm   4.0mph /  6.4km/h 95% 0.00in /  0mm
01:34 50.8 °F /  10.4 °C 49.4 °F /  9.7 °C 29.77in /  1008hPa SSW 1.0mph /  1.6km/h 4.0mph /  6.4km/h 95% 0.00in /  0mm
01:39 51.0 °F /  10.6 °C 49.6 °F /  9.8 °C 29.78in /  1008.4hPa Calm   4.0mph /  6.4km/h 95% 0.00in /  0mm
01:44 51.3 °F /  10.7 °C 49.9 °F /  9.9 °C 29.78in /  1008.4hPa Calm   3.0mph /  4.8km/h 95% 0.00in /  0mm
01:49 51.5 °F /  10.8 °C 50.1 °F /  10.1 °C 29.78in /  1008.4hPa Calm   2.0mph /  3.2km/h 95% 0.00in /  0mm
01:54 51.4 °F /  10.8 °C 50.0 °F /  10 °C 29.78in /  1008.4hPa SSW 1.0mph /  1.6km/h 3.0mph /  4.8km/h 95% 0.00in /  0mm
01:59 51.3 °F /  10.7 °C 49.9 °F /  9.9 °C 29.78in /  1008.4hPa Calm   3.0mph /  4.8km/h 95% 0.00in /  0mm
02:04 51.2 °F /  10.7 °C 49.8 °F /  9.9 °C 29.78in /  1008.4hPa Calm     95% 0.00in /  0mm
02:09 51.1 °F /  10.6 °C 49.7 °F /  9.8 °C 29.78in /  1008.4hPa Calm   1.0mph /  1.6km/h 95% 0.00in /  0mm
02:14 51.0 °F /  10.6 °C 49.6 °F /  9.8 °C 29.78in /  1008.4hPa Calm   1.0mph /  1.6km/h 95% 0.00in /  0mm
02:19 51.0 °F /  10.6 °C 49.6 °F /  9.8 °C 29.78in /  1008.4hPa Calm     95% 0.00in /  0mm
02:24 51.1 °F /  10.6 °C 49.7 °F /  9.8 °C 29.78in /  1008.4hPa Calm     95% 0.00in /  0mm
02:29 51.0 °F /  10.6 °C 49.6 °F /  9.8 °C 29.78in /  1008.4hPa Calm     95% 0.00in /  0mm
02:34 51.0 °F /  10.6 °C 49.6 °F /  9.8 °C 29.78in /  1008.4hPa Calm     95% 0.00in /  0mm
02:39 51.0 °F /  10.6 °C 49.6 °F /  9.8 °C 29.78in /  1008.4hPa Calm     95% 0.00in /  0mm
02:44 51.2 °F /  10.7 °C 49.8 °F /  9.9 °C 29.78in /  1008.4hPa Calm   1.0mph /  1.6km/h 95% 0.00in /  0mm
02:49 51.3 °F /  10.7 °C 49.9 °F /  9.9 °C 29.78in /  1008.4hPa Calm   1.0mph /  1.6km/h 95% 0.00in /  0mm
02:54 50.9 °F /  10.5 °C 49.5 °F /  9.7 °C 29.78in /  1008.4hPa Calm     95% 0.00in /  0mm
02:59 50.5 °F /  10.3 °C 49.1 °F /  9.5 °C 29.78in /  1008.4hPa Calm     95% 0.00in /  0mm
03:04 50.1 °F /  10.1 °C 48.7 °F /  9.3 °C 29.78in /  1008.4hPa Calm     95% 0.01in /  0.3mm
03:09 49.6 °F /  9.8 °C 48.2 °F /  9 °C 29.78in /  1008.4hPa Calm     95% 0.01in /  0.3mm
03:14 49.2 °F /  9.6 °C 47.8 °F /  8.8 °C 29.78in /  1008.4hPa Calm     95% 0.01in /  0.3mm
03:19 49.0 °F /  9.4 °C 47.6 °F /  8.7 °C 29.78in /  1008.4hPa Calm     95% 0.01in /  0.3mm
03:24 49.0 °F /  9.4 °C 47.6 °F /  8.7 °C 29.78in /  1008.4hPa Calm     95% 0.01in /  0.3mm
03:29 48.7 °F /  9.3 °C 47.3 °F /  8.5 °C 29.79in /  1008.7hPa Calm     95% 0.01in /  0.3mm
03:34 48.6 °F /  9.2 °C 47.2 °F /  8.4 °C 29.79in /  1008.7hPa Calm     95% 0.01in /  0.3mm
03:39 48.6 °F /  9.2 °C 47.2 °F /  8.4 °C 29.79in /  1008.7hPa Calm     95% 0.01in /  0.3mm
03:44 48.4 °F /  9.1 °C 47.0 °F /  8.3 °C 29.79in /  1008.7hPa Calm     95% 0.01in /  0.3mm
03:49 48.5 °F /  9.2 °C 47.1 °F /  8.4 °C 29.79in /  1008.7hPa Calm   1.0mph /  1.6km/h 95% 0.01in /  0.3mm
03:54 48.6 °F /  9.2 °C 47.2 °F /  8.4 °C 29.79in /  1008.7hPa SSW 1.0mph /  1.6km/h 2.0mph /  3.2km/h 95% 0.01in /  0.3mm
03:59 48.8 °F /  9.3 °C 47.4 °F /  8.6 °C 29.79in /  1008.7hPa Calm   2.0mph /  3.2km/h 95% 0.01in /  0.3mm
04:04 48.8 °F /  9.3 °C 47.4 °F /  8.6 °C 29.79in /  1008.7hPa SSW 1.0mph /  1.6km/h 3.0mph /  4.8km/h 95% 0.01in /  0.3mm
04:09 48.8 °F /  9.3 °C 47.4 °F /  8.6 °C 29.79in /  1008.7hPa Calm   3.0mph /  4.8km/h 95% 0.01in /  0.3mm
04:14 48.5 °F /  9.2 °C 47.1 °F /  8.4 °C 29.80in /  1009hPa Calm     95% 0.01in /  0.3mm
04:19 48.1 °F /  8.9 °C 46.7 °F /  8.2 °C 29.80in /  1009hPa Calm     95% 0.01in /  0.3mm
04:24 47.8 °F /  8.8 °C 46.4 °F /  8 °C 29.80in /  1009hPa Calm     95% 0.01in /  0.3mm
04:29 47.5 °F /  8.6 °C 46.1 °F /  7.8 °C 29.80in /  1009hPa Calm     95% 0.01in /  0.3mm
04:34 47.1 °F /  8.4 °C 45.7 °F /  7.6 °C 29.80in /  1009hPa Calm     95% 0.01in /  0.3mm
04:39 46.9 °F /  8.3 °C 45.5 °F /  7.5 °C 29.80in /  1009hPa Calm     95% 0.01in /  0.3mm
04:44 46.8 °F /  8.2 °C 45.4 °F /  7.4 °C 29.80in /  1009hPa Calm     95% 0.01in /  0.3mm
04:49 46.7 °F /  8.2 °C 45.3 °F /  7.4 °C 29.80in /  1009hPa Calm     95% 0.01in /  0.3mm
04:54 46.5 °F /  8.1 °C 45.1 °F /  7.3 °C 29.81in /  1009.4hPa Calm     95% 0.01in /  0.3mm
04:59 46.4 °F /  8 °C 45.0 °F /  7.2 °C 29.81in /  1009.4hPa Calm     95% 0.01in /  0.3mm
05:04 46.4 °F /  8 °C 45.0 °F /  7.2 °C 29.81in /  1009.4hPa Calm     95% 0.01in /  0.3mm
05:09 46.7 °F /  8.2 °C 45.3 °F /  7.4 °C 29.81in /  1009.4hPa Calm   2.0mph /  3.2km/h 95% 0.01in /  0.3mm
05:14 47.0 °F /  8.3 °C 45.6 °F /  7.6 °C 29.81in /  1009.4hPa Calm   2.0mph /  3.2km/h 95% 0.01in /  0.3mm
05:19 47.4 °F /  8.6 °C 46.0 °F /  7.8 °C 29.81in /  1009.4hPa Calm   2.0mph /  3.2km/h 95% 0.01in /  0.3mm
05:29 47.8 °F /  8.8 °C 46.7 °F /  8.2 °C 29.82in /  1009.7hPa SSW 1.0mph /  1.6km/h 3.0mph /  4.8km/h 96% 0.01in /  0.3mm
05:34 48.1 °F /  8.9 °C 46.7 °F /  8.2 °C 29.82in /  1009.7hPa Calm   3.0mph /  4.8km/h 95% 0.01in /  0.3mm
05:39 48.5 °F /  9.2 °C 47.4 °F /  8.6 °C 29.82in /  1009.7hPa Calm   2.0mph /  3.2km/h 96% 0.01in /  0.3mm
05:44 49.2 °F /  9.6 °C 48.1 °F /  8.9 °C 29.82in /  1009.7hPa SSW 1.0mph /  1.6km/h 5.0mph /  8km/h 96% 0.01in /  0.3mm
05:49 49.6 °F /  9.8 °C 48.5 °F /  9.2 °C 29.83in /  1010hPa Calm   5.0mph /  8km/h 96% 0.01in /  0.3mm
05:54 50.0 °F /  10 °C 48.9 °F /  9.4 °C 29.83in /  1010hPa Calm   4.0mph /  6.4km/h 96% 0.01in /  0.3mm
05:59 50.1 °F /  10.1 °C 49.0 °F /  9.4 °C 29.83in /  1010hPa Calm   1.0mph /  1.6km/h 96% 0.01in /  0.3mm
06:04 50.3 °F /  10.2 °C 49.2 °F /  9.6 °C 29.83in /  1010hPa SSW 1.0mph /  1.6km/h 4.0mph /  6.4km/h 96% 0.01in /  0.3mm
06:14 50.3 °F /  10.2 °C 49.2 °F /  9.6 °C 29.83in /  1010hPa Calm   5.0mph /  8km/h 96% 0.01in /  0.3mm
06:19 50.4 °F /  10.2 °C 49.3 °F /  9.6 °C 29.83in /  1010hPa Calm   4.0mph /  6.4km/h 96% 0.01in /  0.3mm
06:24 50.4 °F /  10.2 °C 49.3 °F /  9.6 °C 29.83in /  1010hPa Calm   2.0mph /  3.2km/h 96% 0.01in /  0.3mm
06:29 50.5 °F /  10.3 °C 49.4 °F /  9.7 °C 29.83in /  1010hPa Calm     96% 0.01in /  0.3mm
06:34 50.7 °F /  10.4 °C 49.6 °F /  9.8 °C 29.83in /  1010hPa Calm     96% 0.01in /  0.3mm
06:39 50.9 °F /  10.5 °C 49.8 °F /  9.9 °C 29.83in /  1010hPa Calm   1.0mph /  1.6km/h 96% 0.01in /  0.3mm
06:44 51.2 °F /  10.7 °C 50.1 °F /  10.1 °C 29.83in /  1010hPa Calm   1.0mph /  1.6km/h 96% 0.01in /  0.3mm
06:54 51.8 °F /  11 °C 50.7 °F /  10.4 °C 29.84in /  1010.4hPa Calm   3.0mph /  4.8km/h 96% 0.01in /  0.3mm
06:59 52.0 °F /  11.1 °C 50.9 °F /  10.5 °C 29.84in /  1010.4hPa Calm   3.0mph /  4.8km/h 96% 0.01in /  0.3mm
07:04 52.3 °F /  11.3 °C 51.2 °F /  10.7 °C 29.84in /  1010.4hPa SSW 1.0mph /  1.6km/h 5.0mph /  8km/h 96% 0.01in /  0.3mm
07:09 52.7 °F /  11.5 °C 51.6 °F /  10.9 °C 29.84in /  1010.4hPa SSW 2.0mph /  3.2km/h 5.0mph /  8km/h 96% 0.01in /  0.3mm
07:14 53.0 °F /  11.7 °C 51.9 °F /  11.1 °C 29.84in /  1010.4hPa SSW 1.0mph /  1.6km/h 6.0mph /  9.7km/h 96% 0.01in /  0.3mm
07:19 53.2 °F /  11.8 °C 52.1 °F /  11.2 °C 29.84in /  1010.4hPa SW 2.0mph /  3.2km/h 6.0mph /  9.7km/h 96% 0.01in /  0.3mm
07:24 53.5 °F /  11.9 °C 52.4 °F /  11.3 °C 29.84in /  1010.4hPa Calm   6.0mph /  9.7km/h 96% 0.01in /  0.3mm
07:29 53.8 °F /  12.1 °C 52.7 °F /  11.5 °C 29.84in /  1010.4hPa Calm   6.0mph /  9.7km/h 96% 0.01in /  0.3mm
07:34 54.1 °F /  12.3 °C 53.0 °F /  11.7 °C 29.84in /  1010.4hPa SSW 1.0mph /  1.6km/h 6.0mph /  9.7km/h 96% 0.01in /  0.3mm
07:39 54.3 °F /  12.4 °C 53.2 °F /  11.8 °C 29.85in /  1010.7hPa SSW 1.0mph /  1.6km/h 6.0mph /  9.7km/h 96% 0.01in /  0.3mm
07:44 54.5 °F /  12.5 °C 53.4 °F /  11.9 °C 29.85in /  1010.7hPa SSW 1.0mph /  1.6km/h 7.0mph /  11.3km/h 96% 0.01in /  0.3mm
07:49 54.8 °F /  12.7 °C 53.7 °F /  12.1 °C 29.85in /  1010.7hPa SSW 1.0mph /  1.6km/h 7.0mph /  11.3km/h 96% 0.01in /  0.3mm
07:54 55.2 °F /  12.9 °C 54.1 °F /  12.3 °C 29.85in /  1010.7hPa SSW 1.0mph /  1.6km/h 5.0mph /  8km/h 96% 0.01in /  0.3mm
07:59 55.7 °F /  13.2 °C 54.6 °F /  12.6 °C 29.85in /  1010.7hPa SSW 1.0mph /  1.6km/h 6.0mph /  9.7km/h 96% 0.01in /  0.3mm
08:04 56.1 °F /  13.4 °C 55.0 °F /  12.8 °C 29.85in /  1010.7hPa SSW 1.0mph /  1.6km/h 7.0mph /  11.3km/h 96% 0.01in /  0.3mm
08:09 56.4 °F /  13.6 °C 55.3 °F /  12.9 °C 29.85in /  1010.7hPa SW 2.0mph /  3.2km/h 7.0mph /  11.3km/h 96% 0.01in /  0.3mm
08:14 56.8 °F /  13.8 °C 55.7 °F /  13.2 °C 29.85in /  1010.7hPa SW 1.0mph /  1.6km/h 6.0mph /  9.7km/h 96% 0.01in /  0.3mm
08:19 57.1 °F /  13.9 °C 56.0 °F /  13.3 °C 29.85in /  1010.7hPa South 1.0mph /  1.6km/h 7.0mph /  11.3km/h 96% 0.01in /  0.3mm
08:29 57.9 °F /  14.4 °C 56.5 °F /  13.6 °C 29.86in /  1011.1hPa Calm   6.0mph /  9.7km/h 95% 0.01in /  0.3mm
08:34 58.4 °F /  14.7 °C 56.7 °F /  13.7 °C 29.86in /  1011.1hPa SSW 1.0mph /  1.6km/h 7.0mph /  11.3km/h 94% 0.01in /  0.3mm
08:39 58.9 °F /  14.9 °C 56.6 °F /  13.7 °C 29.86in /  1011.1hPa SSW 2.0mph /  3.2km/h 7.0mph /  11.3km/h 92% 0.01in /  0.3mm
08:44 59.0 °F /  15 °C 56.4 °F /  13.6 °C 29.86in /  1011.1hPa SW 1.0mph /  1.6km/h 7.0mph /  11.3km/h 91% 0.01in /  0.3mm
08:49 59.9 °F /  15.5 °C 57.3 °F /  14.1 °C 29.86in /  1011.1hPa South 1.0mph /  1.6km/h 7.0mph /  11.3km/h 91% 0.01in /  0.3mm
08:54 60.3 °F /  15.7 °C 57.0 °F /  13.9 °C 29.86in /  1011.1hPa Calm   6.0mph /  9.7km/h 89% 0.01in /  0.3mm
08:59 60.9 °F /  16.1 °C 57.3 °F /  14.1 °C 29.86in /  1011.1hPa SSW 1.0mph /  1.6km/h 6.0mph /  9.7km/h 88% 0.01in /  0.3mm
09:04 61.6 °F /  16.4 °C 58.0 °F /  14.4 °C 29.86in /  1011.1hPa Calm   6.0mph /  9.7km/h 88% 0.01in /  0.3mm
09:09 61.8 °F /  16.6 °C 56.3 °F /  13.5 °C 29.87in /  1011.4hPa SW 1.0mph /  1.6km/h 5.0mph /  8km/h 82% 0.01in /  0.3mm
09:19 62.9 °F /  17.2 °C 58.0 °F /  14.4 °C 29.87in /  1011.4hPa Calm   1.0mph /  1.6km/h 84% 0.01in /  0.3mm
09:24 62.9 °F /  17.2 °C 57.0 °F /  13.9 °C 29.87in /  1011.4hPa Calm   4.0mph /  6.4km/h 81% 0.01in /  0.3mm
09:29 62.7 °F /  17.1 °C 56.1 °F /  13.4 °C 29.87in /  1011.4hPa SW 2.0mph /  3.2km/h 7.0mph /  11.3km/h 79% 0.01in /  0.3mm
09:34 62.8 °F /  17.1 °C 54.8 °F /  12.7 °C 29.87in /  1011.4hPa WSW 1.0mph /  1.6km/h 7.0mph /  11.3km/h 75% 0.01in /  0.3mm
09:39 63.1 °F /  17.3 °C 55.4 °F /  13 °C 29.87in /  1011.4hPa Calm   6.0mph /  9.7km/h 76% 0.01in /  0.3mm
09:44 63.4 °F /  17.4 °C 53.5 °F /  11.9 °C 29.87in /  1011.4hPa SW 3.0mph /  4.8km/h 7.0mph /  11.3km/h 70% 0.01in /  0.3mm
09:49 63.6 °F /  17.6 °C 54.0 °F /  12.2 °C 29.87in /  1011.4hPa Calm   7.0mph /  11.3km/h 71% 0.01in /  0.3mm
09:54 64.2 °F /  17.9 °C 55.0 °F /  12.8 °C 29.87in /  1011.4hPa SSW 1.0mph /  1.6km/h 5.0mph /  8km/h 72% 0.01in /  0.3mm
09:59 64.9 °F /  18.3 °C 54.9 °F /  12.7 °C 29.87in /  1011.4hPa Calm   5.0mph /  8km/h 70% 0.01in /  0.3mm
10:04 65.2 °F /  18.4 °C 54.4 °F /  12.4 °C 29.87in /  1011.4hPa Calm     68% 0.01in /  0.3mm
10:09 65.3 °F /  18.5 °C 55.3 °F /  12.9 °C 29.87in /  1011.4hPa WNW 1.0mph /  1.6km/h 6.0mph /  9.7km/h 70% 0.01in /  0.3mm
10:14 65.0 °F /  18.3 °C 53.8 °F /  12.1 °C 29.87in /  1011.4hPa Calm   7.0mph /  11.3km/h 67% 0.01in /  0.3mm
10:19 65.1 °F /  18.4 °C 53.1 °F /  11.7 °C 29.87in /  1011.4hPa Calm   7.0mph /  11.3km/h 65% 0.01in /  0.3mm
10:24 65.4 °F /  18.6 °C 55.0 °F /  12.8 °C 29.87in /  1011.4hPa Calm   1.0mph /  1.6km/h 69% 0.01in /  0.3mm
10:29 65.7 °F /  18.7 °C 55.7 °F /  13.2 °C 29.87in /  1011.4hPa Calm   1.0mph /  1.6km/h 70% 0.01in /  0.3mm
10:34 65.9 °F /  18.8 °C 54.6 °F /  12.6 °C 29.87in /  1011.4hPa Calm   1.0mph /  1.6km/h 67% 0.01in /  0.3mm
10:39 65.7 °F /  18.7 °C 54.0 °F /  12.2 °C 29.87in /  1011.4hPa Calm   2.0mph /  3.2km/h 66% 0.01in /  0.3mm
10:44 66.3 °F /  19.1 °C 57.0 °F /  13.9 °C 29.87in /  1011.4hPa WNW 3.0mph /  4.8km/h 6.0mph /  9.7km/h 72% 0.01in /  0.3mm
10:49 66.7 °F /  19.3 °C 56.2 °F /  13.4 °C 29.87in /  1011.4hPa WNW 3.0mph /  4.8km/h 6.0mph /  9.7km/h 69% 0.01in /  0.3mm
10:54 67.0 °F /  19.4 °C 54.0 °F /  12.2 °C 29.87in /  1011.4hPa NE 2.0mph /  3.2km/h 6.0mph /  9.7km/h 63% 0.01in /  0.3mm
10:59 67.2 °F /  19.6 °C 54.6 °F /  12.6 °C 29.87in /  1011.4hPa Calm   6.0mph /  9.7km/h 64% 0.01in /  0.3mm
11:04 67.4 °F /  19.7 °C 52.6 °F /  11.4 °C 29.87in /  1011.4hPa Calm   6.0mph /  9.7km/h 59% 0.01in /  0.3mm
11:14 67.6 °F /  19.8 °C 52.8 °F /  11.6 °C 29.86in /  1011.1hPa West 1.0mph /  1.6km/h 7.0mph /  11.3km/h 59% 0.01in /  0.3mm
11:19 67.7 °F /  19.8 °C 54.2 °F /  12.3 °C 29.86in /  1011.1hPa WNW 1.0mph /  1.6km/h 9.0mph /  14.5km/h 62% 0.01in /  0.3mm
11:24 67.7 °F /  19.8 °C 52.9 °F /  11.6 °C 29.86in /  1011.1hPa Calm   9.0mph /  14.5km/h 59% 0.01in /  0.3mm
11:29 67.9 °F /  19.9 °C 52.6 °F /  11.4 °C 29.86in /  1011.1hPa Calm   5.0mph /  8km/h 58% 0.01in /  0.3mm
11:34 68.8 °F /  20.4 °C 53.9 °F /  12.2 °C 29.86in /  1011.1hPa Calm   1.0mph /  1.6km/h 59% 0.01in /  0.3mm
11:39 69.5 °F /  20.8 °C 53.6 °F /  12 °C 29.86in /  1011.1hPa Calm   1.0mph /  1.6km/h 57% 0.01in /  0.3mm
11:44 69.8 °F /  21 °C 51.4 °F /  10.8 °C 29.86in /  1011.1hPa NW 2.0mph /  3.2km/h 5.0mph /  8km/h 52% 0.01in /  0.3mm
11:54 70.0 °F /  21.1 °C 52.6 °F /  11.4 °C 29.86in /  1011.1hPa WNW 2.0mph /  3.2km/h 8.0mph /  12.9km/h 54% 0.01in /  0.3mm
11:59 69.9 °F /  21.1 °C 54.0 °F /  12.2 °C 29.86in /  1011.1hPa West 2.0mph /  3.2km/h 7.0mph /  11.3km/h 57% 0.01in /  0.3mm
12:04 69.7 °F /  20.9 °C 52.3 °F /  11.3 °C 29.86in /  1011.1hPa WNW 5.0mph /  8km/h 9.0mph /  14.5km/h 54% 0.01in /  0.3mm
12:09 69.3 °F /  20.7 °C 52.9 °F /  11.6 °C 29.86in /  1011.1hPa WNW 4.0mph /  6.4km/h 9.0mph /  14.5km/h 56% 0.01in /  0.3mm
12:14 69.1 °F /  20.6 °C 52.3 °F /  11.3 °C 29.86in /  1011.1hPa NW 1.0mph /  1.6km/h 9.0mph /  14.5km/h 55% 0.01in /  0.3mm
12:19 69.4 °F /  20.8 °C 53.0 °F /  11.7 °C 29.86in /  1011.1hPa NW 1.0mph /  1.6km/h 8.0mph /  12.9km/h 56% 0.01in /  0.3mm
12:24 68.7 °F /  20.4 °C 53.8 °F /  12.1 °C 29.86in /  1011.1hPa WNW 2.0mph /  3.2km/h 8.0mph /  12.9km/h 59% 0.01in /  0.3mm
12:29 68.7 °F /  20.4 °C 51.9 °F /  11.1 °C 29.86in /  1011.1hPa West 1.0mph /  1.6km/h 8.0mph /  12.9km/h 55% 0.01in /  0.3mm
12:34 69.4 °F /  20.8 °C 55.4 °F /  13 °C 29.85in /  1010.7hPa West 5.0mph /  8km/h 11.0mph /  17.7km/h 61% 0.01in /  0.3mm
12:39 70.1 °F /  21.2 °C 55.1 °F /  12.8 °C 29.85in /  1010.7hPa NW 1.0mph /  1.6km/h 11.0mph /  17.7km/h 59% 0.01in /  0.3mm
12:44 71.2 °F /  21.8 °C 57.5 °F /  14.2 °C 29.86in /  1011.1hPa NW 2.0mph /  3.2km/h 9.0mph /  14.5km/h 62% 0.01in /  0.3mm
12:49 71.1 °F /  21.7 °C 53.1 °F /  11.7 °C 29.85in /  1010.7hPa Calm   8.0mph /  12.9km/h 53% 0.01in /  0.3mm
12:54 70.6 °F /  21.4 °C 55.1 °F /  12.8 °C 29.85in /  1010.7hPa West 1.0mph /  1.6km/h 8.0mph /  12.9km/h 58% 0.01in /  0.3mm
12:59 69.5 °F /  20.8 °C 54.6 °F /  12.6 °C 29.85in /  1010.7hPa Calm   9.0mph /  14.5km/h 59% 0.01in /  0.3mm
13:04 69.8 °F /  21 °C 52.9 °F /  11.6 °C 29.85in /  1010.7hPa NW 1.0mph /  1.6km/h 9.0mph /  14.5km/h 55% 0.01in /  0.3mm
13:09 70.2 °F /  21.2 °C 53.8 °F /  12.1 °C 29.85in /  1010.7hPa WNW 4.0mph /  6.4km/h 13.0mph /  20.9km/h 56% 0.01in /  0.3mm
13:14 70.2 °F /  21.2 °C 51.8 °F /  11 °C 29.85in /  1010.7hPa West 4.0mph /  6.4km/h 13.0mph /  20.9km/h 52% 0.01in /  0.3mm
13:19 70.6 °F /  21.4 °C 56.5 °F /  13.6 °C 29.85in /  1010.7hPa NW 1.0mph /  1.6km/h 8.0mph /  12.9km/h 61% 0.01in /  0.3mm
13:24 71.3 °F /  21.8 °C 55.8 °F /  13.2 °C 29.85in /  1010.7hPa Calm   8.0mph /  12.9km/h 58% 0.01in /  0.3mm
13:29 71.7 °F /  22.1 °C 55.2 °F /  12.9 °C 29.85in /  1010.7hPa NNW 2.0mph /  3.2km/h 5.0mph /  8km/h 56% 0.01in /  0.3mm
13:34 71.9 °F /  22.2 °C 52.3 °F /  11.3 °C 29.85in /  1010.7hPa WNW 1.0mph /  1.6km/h 5.0mph /  8km/h 50% 0.01in /  0.3mm
13:39 72.3 °F /  22.4 °C 55.7 °F /  13.2 °C 29.85in /  1010.7hPa Calm   5.0mph /  8km/h 56% 0.01in /  0.3mm
13:44 72.3 °F /  22.4 °C 51.0 °F /  10.6 °C 29.85in /  1010.7hPa Calm   7.0mph /  11.3km/h 47% 0.01in /  0.3mm
13:49 72.3 °F /  22.4 °C 53.7 °F /  12.1 °C 29.85in /  1010.7hPa Calm   7.0mph /  11.3km/h 52% 0.01in /  0.3mm
13:54 71.9 °F /  22.2 °C 55.4 °F /  13 °C 29.85in /  1010.7hPa Calm   4.0mph /  6.4km/h 56% 0.01in /  0.3mm
13:59 71.3 °F /  21.8 °C 52.8 °F /  11.6 °C 29.84in /  1010.4hPa Calm   5.0mph /  8km/h 52% 0.01in /  0.3mm
14:04 71.4 °F /  21.9 °C 55.4 °F /  13 °C 29.85in /  1010.7hPa Calm   7.0mph /  11.3km/h 57% 0.01in /  0.3mm
14:09 71.9 °F /  22.2 °C 56.3 °F /  13.5 °C 29.85in /  1010.7hPa Calm   7.0mph /  11.3km/h 58% 0.01in /  0.3mm
14:14 72.2 °F /  22.3 °C 52.5 °F /  11.4 °C 29.84in /  1010.4hPa West 3.0mph /  4.8km/h 7.0mph /  11.3km/h 50% 0.01in /  0.3mm
14:19 72.3 °F /  22.4 °C 53.2 °F /  11.8 °C 29.84in /  1010.4hPa Calm   7.0mph /  11.3km/h 51% 0.01in /  0.3mm
14:24 71.7 °F /  22.1 °C 55.2 °F /  12.9 °C 29.84in /  1010.4hPa West 1.0mph /  1.6km/h 8.0mph /  12.9km/h 56% 0.01in /  0.3mm
14:29 72.2 °F /  22.3 °C 53.6 °F /  12 °C 29.84in /  1010.4hPa WNW 2.0mph /  3.2km/h 8.0mph /  12.9km/h 52% 0.01in /  0.3mm
14:34 72.6 °F /  22.6 °C 56.5 °F /  13.6 °C 29.84in /  1010.4hPa WNW 1.0mph /  1.6km/h 7.0mph /  11.3km/h 57% 0.01in /  0.3mm
14:39 72.5 °F /  22.5 °C 52.8 °F /  11.6 °C 29.84in /  1010.4hPa NW 1.0mph /  1.6km/h 7.0mph /  11.3km/h 50% 0.01in /  0.3mm
14:44 71.9 °F /  22.2 °C 56.3 °F /  13.5 °C 29.84in /  1010.4hPa Calm   7.0mph /  11.3km/h 58% 0.01in /  0.3mm
14:49 71.7 °F /  22.1 °C 53.7 °F /  12.1 °C 29.84in /  1010.4hPa Calm   6.0mph /  9.7km/h 53% 0.01in /  0.3mm
14:54 72.1 °F /  22.3 °C 54.6 °F /  12.6 °C 29.84in /  1010.4hPa Calm   5.0mph /  8km/h 54% 0.01in /  0.3mm
14:59 72.6 °F /  22.6 °C 55.5 °F /  13.1 °C 29.83in /  1010hPa Calm   6.0mph /  9.7km/h 55% 0.01in /  0.3mm
15:04 71.9 °F /  22.2 °C 53.3 °F /  11.8 °C 29.84in /  1010.4hPa Calm   6.0mph /  9.7km/h 52% 0.01in /  0.3mm
15:09 71.5 °F /  21.9 °C 55.5 °F /  13.1 °C 29.84in /  1010.4hPa WNW 3.0mph /  4.8km/h 8.0mph /  12.9km/h 57% 0.01in /  0.3mm
15:14 71.3 °F /  21.8 °C 53.8 °F /  12.1 °C 29.83in /  1010hPa Calm   8.0mph /  12.9km/h 54% 0.01in /  0.3mm
15:19 71.8 °F /  22.1 °C 52.2 °F /  11.2 °C 29.83in /  1010hPa Calm   5.0mph /  8km/h 50% 0.01in /  0.3mm
15:24 72.6 °F /  22.6 °C 54.5 °F /  12.5 °C 29.84in /  1010.4hPa Calm   4.0mph /  6.4km/h 53% 0.01in /  0.3mm
15:29 73.1 °F /  22.8 °C 56.0 °F /  13.3 °C 29.84in /  1010.4hPa Calm   1.0mph /  1.6km/h 55% 0.01in /  0.3mm
15:39 73.8 °F /  23.2 °C 51.8 °F /  11 °C 29.84in /  1010.4hPa WNW 1.0mph /  1.6km/h 6.0mph /  9.7km/h 46% 0.01in /  0.3mm
15:44 73.8 °F /  23.2 °C 52.9 °F /  11.6 °C 29.84in /  1010.4hPa NE 1.0mph /  1.6km/h 5.0mph /  8km/h 48% 0.01in /  0.3mm
15:49 73.9 °F /  23.3 °C 55.2 °F /  12.9 °C 29.84in /  1010.4hPa Calm   5.0mph /  8km/h 52% 0.01in /  0.3mm
15:54 73.9 °F /  23.3 °C 51.8 °F /  11 °C 29.84in /  1010.4hPa Calm   5.0mph /  8km/h 46% 0.01in /  0.3mm
15:59 74.1 °F /  23.4 °C 51.4 °F /  10.8 °C 29.84in /  1010.4hPa Calm   4.0mph /  6.4km/h 45% 0.01in /  0.3mm
16:04 74.1 °F /  23.4 °C 52.0 °F /  11.1 °C 29.84in /  1010.4hPa WNW 4.0mph /  6.4km/h 8.0mph /  12.9km/h 46% 0.01in /  0.3mm
16:09 73.6 °F /  23.1 °C 52.2 °F /  11.2 °C 29.84in /  1010.4hPa West 1.0mph /  1.6km/h 8.0mph /  12.9km/h 47% 0.01in /  0.3mm
16:14 73.2 °F /  22.9 °C 53.5 °F /  11.9 °C 29.84in /  1010.4hPa West 2.0mph /  3.2km/h 8.0mph /  12.9km/h 50% 0.01in /  0.3mm
16:19 73.6 °F /  23.1 °C 54.4 °F /  12.4 °C 29.84in /  1010.4hPa Calm   5.0mph /  8km/h 51% 0.01in /  0.3mm
16:24 74.1 °F /  23.4 °C 52.6 °F /  11.4 °C 29.84in /  1010.4hPa NW 1.0mph /  1.6km/h 7.0mph /  11.3km/h 47% 0.01in /  0.3mm
16:29 74.2 °F /  23.4 °C 50.9 °F /  10.5 °C 29.83in /  1010hPa NW 4.0mph /  6.4km/h 7.0mph /  11.3km/h 44% 0.01in /  0.3mm
16:34 73.7 °F /  23.2 °C 52.8 °F /  11.6 °C 29.83in /  1010hPa NW 1.0mph /  1.6km/h 7.0mph /  11.3km/h 48% 0.01in /  0.3mm
16:39 73.8 °F /  23.2 °C 54.0 °F /  12.2 °C 29.83in /  1010hPa West 2.0mph /  3.2km/h 7.0mph /  11.3km/h 50% 0.01in /  0.3mm
16:44 74.1 °F /  23.4 °C 54.3 °F /  12.4 °C 29.84in /  1010.4hPa Calm   6.0mph /  9.7km/h 50% 0.01in /  0.3mm
16:49 74.3 °F /  23.5 °C 53.9 °F /  12.2 °C 29.83in /  1010hPa Calm   7.0mph /  11.3km/h 49% 0.01in /  0.3mm
16:54 74.6 °F /  23.7 °C 54.2 °F /  12.3 °C 29.84in /  1010.4hPa Calm   7.0mph /  11.3km/h 49% 0.01in /  0.3mm
16:59 74.7 °F /  23.7 °C 53.7 °F /  12.1 °C 29.84in /  1010.4hPa Calm   5.0mph /  8km/h 48% 0.01in /  0.3mm
17:04 74.6 °F /  23.7 °C 53.6 °F /  12 °C 29.83in /  1010hPa Calm   1.0mph /  1.6km/h 48% 0.01in /  0.3mm
17:09 74.8 °F /  23.8 °C 53.2 °F /  11.8 °C 29.84in /  1010.4hPa Calm   1.0mph /  1.6km/h 47% 0.01in /  0.3mm
17:14 75.1 °F /  23.9 °C 57.9 °F /  14.4 °C 29.84in /  1010.4hPa WNW 1.0mph /  1.6km/h 5.0mph /  8km/h 55% 0.01in /  0.3mm
17:19 75.0 °F /  23.9 °C 55.1 °F /  12.8 °C 29.83in /  1010hPa Calm   6.0mph /  9.7km/h 50% 0.01in /  0.3mm
17:24 74.4 °F /  23.6 °C 54.6 °F /  12.6 °C 29.84in /  1010.4hPa Calm   6.0mph /  9.7km/h 50% 0.01in /  0.3mm
17:29 74.5 °F /  23.6 °C 51.2 °F /  10.7 °C 29.84in /  1010.4hPa NW 5.0mph /  8km/h 7.0mph /  11.3km/h 44% 0.01in /  0.3mm
17:34 74.2 °F /  23.4 °C 52.1 °F /  11.2 °C 29.84in /  1010.4hPa Calm   7.0mph /  11.3km/h 46% 0.01in /  0.3mm
17:39 74.1 °F /  23.4 °C 54.3 °F /  12.4 °C 29.84in /  1010.4hPa NW 1.0mph /  1.6km/h 5.0mph /  8km/h 50% 0.01in /  0.3mm
17:44 74.1 °F /  23.4 °C 53.7 °F /  12.1 °C 29.84in /  1010.4hPa Calm   5.0mph /  8km/h 49% 0.01in /  0.3mm
17:49 74.3 °F /  23.5 °C 52.8 °F /  11.6 °C 29.84in /  1010.4hPa Calm   1.0mph /  1.6km/h 47% 0.01in /  0.3mm
17:54 74.6 °F /  23.7 °C 53.6 °F /  12 °C 29.84in /  1010.4hPa Calm   1.0mph /  1.6km/h 48% 0.01in /  0.3mm
17:59 74.3 °F /  23.5 °C 54.5 °F /  12.5 °C 29.85in /  1010.7hPa Calm   5.0mph /  8km/h 50% 0.01in /  0.3mm
18:04 74.2 °F /  23.4 °C 54.9 °F /  12.7 °C 29.85in /  1010.7hPa NW 1.0mph /  1.6km/h 5.0mph /  8km/h 51% 0.01in /  0.3mm
18:09 74.2 °F /  23.4 °C 52.7 °F /  11.5 °C 29.85in /  1010.7hPa Calm   5.0mph /  8km/h 47% 0.01in /  0.3mm
18:14 74.0 °F /  23.3 °C 53.7 °F /  12.1 °C 29.85in /  1010.7hPa Calm   1.0mph /  1.6km/h 49% 0.01in /  0.3mm
18:19 73.4 °F /  23 °C 54.2 °F /  12.3 °C 29.85in /  1010.7hPa Calm   1.0mph /  1.6km/h 51% 0.01in /  0.3mm
18:24 72.9 °F /  22.7 °C 53.7 °F /  12.1 °C 29.85in /  1010.7hPa Calm   1.0mph /  1.6km/h 51% 0.01in /  0.3mm
18:29 72.5 °F /  22.5 °C 53.9 °F /  12.2 °C 29.85in /  1010.7hPa Calm   1.0mph /  1.6km/h 52% 0.01in /  0.3mm
18:34 72.1 °F /  22.3 °C 56.0 °F /  13.3 °C 29.85in /  1010.7hPa Calm   1.0mph /  1.6km/h 57% 0.01in /  0.3mm
18:39 71.3 °F /  21.8 °C 54.8 °F /  12.7 °C 29.85in /  1010.7hPa Calm   4.0mph /  6.4km/h 56% 0.01in /  0.3mm
18:44 70.9 °F /  21.6 °C 56.8 °F /  13.8 °C 29.85in /  1010.7hPa Calm   4.0mph /  6.4km/h 61% 0.01in /  0.3mm
18:49 70.5 °F /  21.4 °C 55.0 °F /  12.8 °C 29.85in /  1010.7hPa Calm   2.0mph /  3.2km/h 58% 0.01in /  0.3mm
18:59 70.7 °F /  21.5 °C 54.7 °F /  12.6 °C 29.85in /  1010.7hPa Calm   1.0mph /  1.6km/h 57% 0.01in /  0.3mm
19:04 70.7 °F /  21.5 °C 55.2 °F /  12.9 °C 29.85in /  1010.7hPa Calm   3.0mph /  4.8km/h 58% 0.01in /  0.3mm
19:09 70.5 °F /  21.4 °C 53.1 °F /  11.7 °C 29.85in /  1010.7hPa Calm   3.0mph /  4.8km/h 54% 0.01in /  0.3mm
19:14 70.6 °F /  21.4 °C 56.1 °F /  13.4 °C 29.85in /  1010.7hPa Calm   1.0mph /  1.6km/h 60% 0.01in /  0.3mm
19:19 70.3 °F /  21.3 °C 55.3 °F /  12.9 °C 29.86in /  1011.1hPa Calm     59% 0.01in /  0.3mm
19:24 69.9 °F /  21.1 °C 54.5 °F /  12.5 °C 29.86in /  1011.1hPa Calm   1.0mph /  1.6km/h 58% 0.01in /  0.3mm
19:29 69.4 °F /  20.8 °C 54.9 °F /  12.7 °C 29.86in /  1011.1hPa Calm   3.0mph /  4.8km/h 60% 0.01in /  0.3mm
19:34 68.8 °F /  20.4 °C 56.1 °F /  13.4 °C 29.86in /  1011.1hPa Calm   3.0mph /  4.8km/h 64% 0.01in /  0.3mm
19:39 67.8 °F /  19.9 °C 55.6 °F /  13.1 °C 29.86in /  1011.1hPa Calm     65% 0.01in /  0.3mm
19:44 67.0 °F /  19.4 °C 55.7 °F /  13.2 °C 29.86in /  1011.1hPa Calm     67% 0.01in /  0.3mm
19:49 66.1 °F /  18.9 °C 54.0 °F /  12.2 °C 29.86in /  1011.1hPa Calm     65% 0.01in /  0.3mm
19:54 65.5 °F /  18.6 °C 54.3 °F /  12.4 °C 29.86in /  1011.1hPa Calm     67% 0.01in /  0.3mm
19:59 65.1 °F /  18.4 °C 53.5 °F /  11.9 °C 29.86in /  1011.1hPa Calm     66% 0.01in /  0.3mm
20:04 64.7 °F /  18.2 °C 53.5 °F /  11.9 °C 29.86in /  1011.1hPa Calm   5.0mph /  8km/h 67% 0.01in /  0.3mm
20:09 64.1 °F /  17.8 °C 53.3 °F /  11.8 °C 29.86in /  1011.1hPa Calm   5.0mph /  8km/h 68% 0.01in /  0.3mm
20:14 63.4 °F /  17.4 °C 53.5 °F /  11.9 °C 29.86in /  1011.1hPa Calm   1.0mph /  1.6km/h 70% 0.01in /  0.3mm
20:19 62.4 °F /  16.9 °C 52.9 °F /  11.6 °C 29.87in /  1011.4hPa Calm   1.0mph /  1.6km/h 71% 0.01in /  0.3mm
20:24 61.6 °F /  16.4 °C 52.5 °F /  11.4 °C 29.87in /  1011.4hPa Calm   1.0mph /  1.6km/h 72% 0.01in /  0.3mm
20:29 60.8 °F /  16 °C 52.5 °F /  11.4 °C 29.87in /  1011.4hPa Calm   1.0mph /  1.6km/h 74% 0.01in /  0.3mm
20:34 59.9 °F /  15.5 °C 51.6 °F /  10.9 °C 29.87in /  1011.4hPa Calm     74% 0.01in /  0.3mm
20:39 59.0 °F /  15 °C 51.1 °F /  10.6 °C 29.87in /  1011.4hPa Calm     75% 0.01in /  0.3mm
20:44 58.5 °F /  14.7 °C 51.3 °F /  10.7 °C 29.87in /  1011.4hPa Calm   2.0mph /  3.2km/h 77% 0.01in /  0.3mm
20:49 57.8 °F /  14.3 °C 50.6 °F /  10.3 °C 29.87in /  1011.4hPa Calm   2.0mph /  3.2km/h 77% 0.01in /  0.3mm
20:54 57.2 °F /  14 °C 50.1 °F /  10.1 °C 29.87in /  1011.4hPa Calm     77% 0.01in /  0.3mm
20:59 56.6 °F /  13.7 °C 49.5 °F /  9.7 °C 29.88in /  1011.7hPa Calm     77% 0.01in /  0.3mm
21:04 56.1 °F /  13.4 °C 49.3 °F /  9.6 °C 29.88in /  1011.7hPa Calm     78% 0.01in /  0.3mm
21:09 55.7 °F /  13.2 °C 49.3 °F /  9.6 °C 29.88in /  1011.7hPa Calm     79% 0.01in /  0.3mm
21:14 55.2 °F /  12.9 °C 48.8 °F /  9.3 °C 29.88in /  1011.7hPa Calm     79% 0.01in /  0.3mm
21:24 54.6 °F /  12.6 °C 48.9 °F /  9.4 °C 29.89in /  1012.1hPa Calm     81% 0.01in /  0.3mm
21:29 54.4 °F /  12.4 °C 48.7 °F /  9.3 °C 29.89in /  1012.1hPa Calm     81% 0.01in /  0.3mm
21:34 54.2 °F /  12.3 °C 48.5 °F /  9.2 °C 29.89in /  1012.1hPa Calm     81% 0.01in /  0.3mm
21:39 54.2 °F /  12.3 °C 48.5 °F /  9.2 °C 29.89in /  1012.1hPa Calm     81% 0.01in /  0.3mm
21:44 54.1 °F /  12.3 °C 48.4 °F /  9.1 °C 29.89in /  1012.1hPa Calm     81% 0.01in /  0.3mm
21:49 54.0 °F /  12.2 °C 48.6 °F /  9.2 °C 29.89in /  1012.1hPa Calm     82% 0.01in /  0.3mm
21:54 54.0 °F /  12.2 °C 48.6 °F /  9.2 °C 29.90in /  1012.4hPa Calm     82% 0.01in /  0.3mm
21:59 53.7 °F /  12.1 °C 48.3 °F /  9.1 °C 29.89in /  1012.1hPa Calm     82% 0.01in /  0.3mm
22:04 53.5 °F /  11.9 °C 48.1 °F /  8.9 °C 29.90in /  1012.4hPa Calm     82% 0.01in /  0.3mm
22:09 53.3 °F /  11.8 °C 48.0 °F /  8.9 °C 29.90in /  1012.4hPa Calm     82% 0.01in /  0.3mm
22:14 53.2 °F /  11.8 °C 47.9 °F /  8.8 °C 29.90in /  1012.4hPa Calm     82% 0.01in /  0.3mm
22:19 53.0 °F /  11.7 °C 47.7 °F /  8.7 °C 29.90in /  1012.4hPa Calm     82% 0.01in /  0.3mm
22:24 52.9 °F /  11.6 °C 47.6 °F /  8.7 °C 29.90in /  1012.4hPa Calm     82% 0.01in /  0.3mm
22:29 52.7 °F /  11.5 °C 47.7 °F /  8.7 °C 29.91in /  1012.8hPa Calm     83% 0.01in /  0.3mm
22:34 52.4 °F /  11.3 °C 47.4 °F /  8.6 °C 29.91in /  1012.8hPa Calm     83% 0.01in /  0.3mm
22:39 52.3 °F /  11.3 °C 47.3 °F /  8.5 °C 29.91in /  1012.8hPa Calm     83% 0.01in /  0.3mm
22:44 52.1 °F /  11.2 °C 47.4 °F /  8.6 °C 29.91in /  1012.8hPa Calm     84% 0.01in /  0.3mm
22:49 52.0 °F /  11.1 °C 47.0 °F /  8.3 °C 29.91in /  1012.8hPa Calm     83% 0.01in /  0.3mm
22:54 51.9 °F /  11.1 °C 47.2 °F /  8.4 °C 29.91in /  1012.8hPa Calm     84% 0.01in /  0.3mm
22:59 51.7 °F /  10.9 °C 47.0 °F /  8.3 °C 29.91in /  1012.8hPa Calm     84% 0.01in /  0.3mm
23:04 51.6 °F /  10.9 °C 47.2 °F /  8.4 °C 29.92in /  1013.1hPa Calm     85% 0.01in /  0.3mm
23:09 51.6 °F /  10.9 °C 47.2 °F /  8.4 °C 29.92in /  1013.1hPa Calm     85% 0.01in /  0.3mm
23:14 51.4 °F /  10.8 °C 47.0 °F /  8.3 °C 29.92in /  1013.1hPa Calm     85% 0.01in /  0.3mm
23:19 51.2 °F /  10.7 °C 46.8 °F /  8.2 °C 29.92in /  1013.1hPa Calm     85% 0.01in /  0.3mm
23:24 51.0 °F /  10.6 °C 46.7 °F /  8.2 °C 29.92in /  1013.1hPa Calm     85% 0.01in /  0.3mm
23:29 51.0 °F /  10.6 °C 46.7 °F /  8.2 °C 29.92in /  1013.1hPa Calm     85% 0.01in /  0.3mm
23:34 50.9 °F /  10.5 °C 46.9 °F /  8.3 °C 29.93in /  1013.4hPa Calm     86% 0.01in /  0.3mm
23:39 50.8 °F /  10.4 °C 46.8 °F /  8.2 °C 29.93in /  1013.4hPa Calm     86% 0.01in /  0.3mm
23:44 50.5 °F /  10.3 °C 46.5 °F /  8.1 °C 29.93in /  1013.4hPa Calm     86% 0.01in /  0.3mm
23:49 50.5 °F /  10.3 °C 46.5 °F /  8.1 °C 29.93in /  1013.4hPa Calm     86% 0.01in /  0.3mm
23:54 50.5 °F /  10.3 °C 46.8 °F /  8.2 °C 29.94in /  1013.8hPa Calm     87% 0.01in /  0.3mm
23:59 50.5 °F /  10.3 °C 46.8 °F /  8.2 °C 29.93in /  1013.4hPa Calm     87% 0.01in /  0.3mm
Westford Weather
Compliments of Weather Underground

 
 
Current Radar Loop:

Copyright © WestfordWeather.net 2007-2014. All rights reserved.